Time;durP1;ratioP1;P1;durP2;ratioP2;P2;SDS_P1;SDS_P2;PMS_P1;PMS_P2;Temp;Humidity;BMP_temperature;BMP_pressure;BME280_temperature;BME280_humidity;BME280_pressure;Samples;Min_cycle;Max_cycle;Signal;HPM_P1;HPM_P2
2023/09/28 00:00:51;;;;;;;5.13;4.57;;;22.50;55.30;;;;;;5002185;28;21164;-53
2023/09/28 00:03:17;;;;;;;7.40;5.30;;;22.50;55.30;;;;;;5003050;28;20553;-47
2023/09/28 00:05:42;;;;;;;5.17;4.67;;;22.50;55.40;;;;;;4999219;28;20456;-46
2023/09/28 00:08:08;;;;;;;7.93;4.77;;;22.50;55.40;;;;;;4990913;28;20202;-46
2023/09/28 00:10:34;;;;;;;5.80;5.30;;;22.50;55.50;;;;;;4990256;28;20240;-53
2023/09/28 00:12:59;;;;;;;6.57;5.20;;;22.30;55.70;;;;;;4999906;28;20198;-48
2023/09/28 00:15:25;;;;;;;5.80;5.20;;;22.20;56.10;;;;;;4988901;28;20481;-49
2023/09/28 00:17:52;;;;;;;6.90;5.07;;;22.00;56.80;;;;;;4994368;28;20222;-51
2023/09/28 00:20:19;;;;;;;5.90;5.40;;;21.90;56.80;;;;;;4990890;28;20809;-50
2023/09/28 00:22:44;;;;;;;6.53;5.50;;;21.90;57.00;;;;;;4990965;28;20508;-48
2023/09/28 00:25:11;;;;;;;5.20;4.70;;;21.80;57.30;;;;;;5005307;28;20854;-52
2023/09/28 00:27:45;;;;;;;5.60;5.10;;;21.90;57.20;;;;;;4992166;28;20306;-53
2023/09/28 00:30:18;;;;;;;9.87;4.80;;;22.00;56.90;;;;;;4992974;28;20457;-51
2023/09/28 00:32:48;;;;;;;6.27;5.67;;;22.10;56.80;;;;;;4994104;28;20438;-49
2023/09/28 00:35:14;;;;;;;5.83;5.07;;;22.10;56.50;;;;;;5008659;28;20476;-47
2023/09/28 00:37:41;;;;;;;5.60;5.10;;;22.10;56.50;;;;;;4991660;28;20783;-50
2023/09/28 00:40:16;;;;;;;7.20;5.13;;;22.10;56.60;;;;;;4992505;28;20461;-53
2023/09/28 00:42:43;;;;;;;6.00;5.50;;;22.10;56.60;;;;;;4990761;28;20450;-50
2023/09/28 00:45:10;;;;;;;6.63;6.00;;;22.10;56.40;;;;;;4993139;28;21028;-52
2023/09/28 00:47:38;;;;;;;5.50;4.97;;;22.00;56.50;;;;;;4995741;28;20481;-49
2023/09/28 00:50:10;;;;;;;5.70;5.20;;;21.90;57.20;;;;;;4989194;28;20481;-50
2023/09/28 00:52:40;;;;;;;6.10;5.60;;;21.80;57.30;;;;;;4992868;28;20478;-51
2023/09/28 00:55:08;;;;;;;6.77;5.73;;;21.60;57.70;;;;;;4993479;28;20822;-47
2023/09/28 00:57:35;;;;;;;5.70;5.30;;;21.60;57.70;;;;;;4992669;28;20497;-52
2023/09/28 01:00:18;;;;;;;7.30;5.70;;;21.50;57.70;;;;;;4993928;28;20554;-47
2023/09/28 01:02:51;;;;;;;7.10;5.63;;;21.30;58.40;;;;;;4990343;28;20457;-51
2023/09/28 01:05:21;;;;;;;6.57;5.97;;;21.20;58.20;;;;;;4990480;28;20486;-51
2023/09/28 01:07:47;;;;;;;5.80;5.30;;;21.00;59.10;;;;;;4995089;28;21010;-51
2023/09/28 01:10:14;;;;;;;6.53;5.93;;;20.90;59.20;;;;;;4989495;28;20449;-48
2023/09/28 01:12:41;;;;;;;6.73;5.10;;;20.90;59.30;;;;;;4988740;28;20521;-53
2023/09/28 01:15:11;;;;;;;6.40;5.40;;;21.00;59.10;;;;;;4991032;28;20457;-53
2023/09/28 01:17:38;;;;;;;6.87;5.70;;;21.10;58.90;;;;;;4989203;28;20540;-52
2023/09/28 01:20:18;;;;;;;6.10;5.50;;;21.00;59.10;;;;;;4995490;28;20579;-52
2023/09/28 01:22:49;;;;;;;6.30;5.70;;;21.00;59.00;;;;;;4994459;28;20544;-52
2023/09/28 01:25:15;;;;;;;5.27;4.87;;;20.80;60.20;;;;;;4995497;28;20792;-49
2023/09/28 01:27:47;;;;;;;6.33;5.73;;;20.60;60.20;;;;;;4998528;28;20503;-49
2023/09/28 01:30:14;;;;;;;6.80;5.50;;;20.50;60.60;;;;;;4998346;28;20450;-48
2023/09/28 01:32:40;;;;;;;7.97;6.30;;;20.70;60.30;;;;;;5000293;28;21071;-51
2023/09/28 01:35:06;;;;;;;7.30;4.87;;;20.50;60.40;;;;;;4992618;28;20456;-52
2023/09/28 01:37:55;;;;;;;8.30;5.47;;;20.30;61.80;;;;;;4988109;28;20488;-51
2023/09/28 01:40:21;;;;;;;7.07;6.37;;;20.60;61.40;;;;;;4985829;28;20461;-52
2023/09/28 01:42:46;;;;;;;10.13;6.17;;;20.90;60.10;;;;;;4991058;28;20826;-54
2023/09/28 01:45:12;;;;;;;8.60;5.60;;;21.10;59.20;;;;;;4993263;28;20190;-49
2023/09/28 01:47:38;;;;;;;5.83;5.33;;;21.40;58.70;;;;;;4991440;28;20198;-52
2023/09/28 01:50:04;;;;;;;5.63;5.13;;;21.50;57.80;;;;;;4987826;28;20233;-53
2023/09/28 01:52:30;;;;;;;7.37;6.67;;;21.50;57.70;;;;;;4989658;28;20451;-50
2023/09/28 01:54:55;;;;;;;6.73;6.17;;;21.30;58.10;;;;;;4997352;28;20438;-51
2023/09/28 01:57:21;;;;;;;6.90;6.30;;;21.20;58.70;;;;;;4996346;28;20246;-51
2023/09/28 01:59:47;;;;;;;10.20;4.73;;;21.00;59.10;;;;;;4988644;28;20599;-53
2023/09/28 02:02:15;;;;;;;5.57;5.00;;;20.90;59.50;;;;;;4987386;28;20669;-49
2023/09/28 02:04:40;;;;;;;7.03;5.70;;;20.80;59.50;;;;;;4993615;28;20207;-51
2023/09/28 02:07:06;;;;;;;6.03;5.53;;;20.70;60.40;;;;;;4997844;28;20552;-53
2023/09/28 02:09:32;;;;;;;7.73;5.20;;;20.80;60.60;;;;;;4988238;28;20195;-53
2023/09/28 02:11:58;;;;;;;7.03;5.57;;;20.90;59.90;;;;;;4992823;28;20583;-53
2023/09/28 02:14:23;;;;;;;6.47;5.87;;;20.90;59.50;;;;;;4990762;28;20277;-49
2023/09/28 02:16:50;;;;;;;5.50;5.10;;;20.80;59.60;;;;;;4992837;28;20533;-54
2023/09/28 02:19:16;;;;;;;7.20;5.50;;;20.80;59.50;;;;;;4992779;28;20230;-53
2023/09/28 02:21:42;;;;;;;5.50;4.93;;;20.90;59.20;;;;;;4994050;28;20448;-52
2023/09/28 02:24:08;;;;;;;7.27;5.57;;;20.90;58.90;;;;;;5000976;28;20477;-50
2023/09/28 02:26:34;;;;;;;6.53;5.27;;;21.00;58.80;;;;;;4998287;28;20449;-51
2023/09/28 02:29:00;;;;;;;5.03;4.63;;;20.90;58.80;;;;;;4994086;28;20440;-54
2023/09/28 02:31:27;;;;;;;5.37;4.97;;;20.80;58.80;;;;;;4993170;28;20206;-51
2023/09/28 02:33:53;;;;;;;6.80;5.60;;;20.80;58.90;;;;;;5002385;28;20248;-53
2023/09/28 02:36:19;;;;;;;5.33;4.80;;;20.80;58.70;;;;;;5000389;28;20433;-53
2023/09/28 02:38:44;;;;;;;5.80;5.20;;;21.00;58.40;;;;;;4990836;28;20222;-54
2023/09/28 02:41:19;;;;;;;5.90;5.40;;;21.00;58.90;;;;;;4991054;28;20838;-53
2023/09/28 02:43:45;;;;;;;5.27;4.80;;;21.00;58.30;;;;;;5004653;28;20569;-48
2023/09/28 02:46:11;;;;;;;5.70;5.20;;;21.10;57.60;;;;;;5007109;28;20448;-49
2023/09/28 02:48:37;;;;;;;9.00;4.83;;;21.30;57.40;;;;;;4988984;28;20195;-50
2023/09/28 02:51:12;;;;;;;5.30;4.80;;;21.30;56.90;;;;;;4994725;28;20486;-47
2023/09/28 02:53:38;;;;;;;4.83;4.43;;;21.40;56.60;;;;;;4996350;28;20194;-47
2023/09/28 02:56:04;;;;;;;5.20;4.80;;;21.40;56.40;;;;;;4992157;28;20476;-47
2023/09/28 02:58:29;;;;;;;5.57;4.40;;;21.50;56.30;;;;;;4989131;28;21709;-48
2023/09/28 03:00:56;;;;;;;6.00;5.20;;;21.60;55.80;;;;;;5004886;28;20655;-48
2023/09/28 03:03:23;;;;;;;5.27;4.77;;;21.70;55.80;;;;;;4990126;28;20191;-51
2023/09/28 03:05:51;;;;;;;5.67;4.93;;;21.70;55.60;;;;;;4990446;28;20457;-48
2023/09/28 03:08:17;;;;;;;5.43;5.03;;;21.80;55.40;;;;;;4987808;28;20442;-46
2023/09/28 03:10:43;;;;;;;5.47;4.40;;;21.80;55.10;;;;;;4991640;28;20453;-47
2023/09/28 03:13:10;;;;;;;5.70;4.60;;;21.70;55.10;;;;;;4996717;28;20281;-47
2023/09/28 03:15:36;;;;;;;5.63;5.03;;;21.70;55.00;;;;;;5001841;28;20453;-48
2023/09/28 03:18:02;;;;;;;5.20;4.80;;;21.70;55.00;;;;;;4988234;28;20485;-49
2023/09/28 03:20:30;;;;;;;5.60;5.10;;;21.70;55.10;;;;;;4999242;28;20281;-46
2023/09/28 03:22:55;;;;;;;5.73;5.23;;;21.60;55.20;;;;;;4988074;28;20445;-46
2023/09/28 03:25:22;;;;;;;5.53;5.13;;;21.60;55.20;;;;;;4998398;28;20564;-47
2023/09/28 03:27:49;;;;;;;5.67;5.17;;;21.60;55.90;;;;;;4985778;28;21421;-50
2023/09/28 03:30:16;;;;;;;5.83;5.27;;;21.70;55.20;;;;;;4993170;28;20453;-46
2023/09/28 03:32:43;;;;;;;5.10;4.70;;;21.60;55.10;;;;;;4993300;28;20479;-47
2023/09/28 03:35:12;;;;;;;5.90;4.40;;;21.70;55.00;;;;;;4988425;28;20457;-47
2023/09/28 03:37:42;;;;;;;4.03;3.73;;;21.70;55.00;;;;;;4985489;28;20493;-51
2023/09/28 03:40:11;;;;;;;5.57;5.17;;;21.60;55.10;;;;;;4991237;28;20464;-47
2023/09/28 03:42:38;;;;;;;5.40;4.90;;;21.60;55.20;;;;;;4999887;28;20441;-47
2023/09/28 03:45:04;;;;;;;6.37;5.10;;;21.60;55.20;;;;;;4989533;28;20468;-47
2023/09/28 03:47:33;;;;;;;6.23;5.13;;;21.60;55.10;;;;;;4992169;28;20810;-46
2023/09/28 03:49:58;;;;;;;5.70;5.20;;;21.60;55.00;;;;;;4994939;28;20449;-49
2023/09/28 03:52:24;;;;;;;9.10;5.10;;;21.60;55.30;;;;;;4988362;28;20499;-49
2023/09/28 03:54:49;;;;;;;5.23;4.70;;;21.40;55.80;;;;;;4994924;28;20231;-47
2023/09/28 03:57:15;;;;;;;6.13;5.57;;;21.50;55.60;;;;;;4995952;28;20233;-48
2023/09/28 03:59:41;;;;;;;6.27;5.67;;;21.50;55.60;;;;;;4997798;28;20230;-47
2023/09/28 04:02:06;;;;;;;9.43;6.47;;;21.50;55.50;;;;;;5002029;28;20639;-47
2023/09/28 04:04:32;;;;;;;5.40;4.90;;;21.60;55.70;;;;;;4990454;28;20282;-47
2023/09/28 04:06:57;;;;;;;7.33;6.20;;;21.50;56.10;;;;;;4991949;28;20202;-47
2023/09/28 04:09:23;;;;;;;6.63;5.93;;;21.30;56.40;;;;;;4988943;28;20658;-49
2023/09/28 04:11:49;;;;;;;6.60;5.97;;;21.30;56.60;;;;;;4992389;28;20195;-47
2023/09/28 04:14:15;;;;;;;6.60;6.00;;;21.30;56.60;;;;;;4993575;28;20668;-48
2023/09/28 04:16:41;;;;;;;6.27;5.77;;;21.20;56.60;;;;;;4992781;28;20285;-47
2023/09/28 04:19:07;;;;;;;7.73;6.10;;;21.30;56.70;;;;;;4988222;28;20621;-48
2023/09/28 04:21:33;;;;;;;6.40;5.90;;;21.30;56.40;;;;;;4991138;28;20500;-47
2023/09/28 04:23:59;;;;;;;6.97;6.33;;;21.30;56.40;;;;;;4997671;28;20527;-50
2023/09/28 04:26:24;;;;;;;7.20;6.50;;;21.20;56.70;;;;;;4996038;28;20445;-52
2023/09/28 04:28:51;;;;;;;6.63;6.03;;;21.10;56.90;;;;;;4988928;28;20195;-47
2023/09/28 04:31:18;;;;;;;6.80;6.10;;;21.10;56.90;;;;;;4990114;28;20195;-46
2023/09/28 04:33:44;;;;;;;6.23;5.73;;;21.10;57.00;;;;;;5000054;28;20472;-46
2023/09/28 04:36:09;;;;;;;5.80;5.30;;;21.10;56.90;;;;;;4996217;28;20441;-47
2023/09/28 04:38:36;;;;;;;7.07;6.00;;;21.00;57.20;;;;;;4996283;28;20230;-46
2023/09/28 04:41:02;;;;;;;6.07;5.57;;;21.00;57.20;;;;;;5005786;28;20205;-47
2023/09/28 04:43:28;;;;;;;6.70;6.10;;;21.00;57.60;;;;;;5001274;28;20559;-46
2023/09/28 04:45:53;;;;;;;7.87;6.17;;;21.00;57.50;;;;;;5005122;28;20260;-47
2023/09/28 04:48:19;;;;;;;6.90;6.30;;;20.90;57.90;;;;;;5001355;28;20584;-46
2023/09/28 04:50:45;;;;;;;7.70;7.00;;;20.90;58.00;;;;;;4995665;28;20208;-47
2023/09/28 04:53:10;;;;;;;6.40;5.90;;;20.90;58.10;;;;;;4993270;28;20198;-49
2023/09/28 04:55:36;;;;;;;7.10;6.50;;;20.90;57.80;;;;;;4988686;28;20237;-46
2023/09/28 04:58:02;;;;;;;7.00;6.30;;;20.80;57.80;;;;;;4996525;28;20225;-46
2023/09/28 05:00:27;;;;;;;11.23;6.30;;;20.40;58.60;;;;;;4995248;28;20203;-47
2023/09/28 05:02:53;;;;;;;6.80;6.10;;;20.30;59.00;;;;;;4998794;28;20206;-47
2023/09/28 05:05:19;;;;;;;7.30;6.60;;;20.10;59.60;;;;;;4994080;28;20194;-46
2023/09/28 05:07:45;;;;;;;10.10;7.50;;;19.80;60.30;;;;;;4991846;28;20326;-48
2023/09/28 05:10:11;;;;;;;7.03;6.43;;;19.60;61.10;;;;;;4990684;28;20209;-46
2023/09/28 05:12:37;;;;;;;10.03;6.93;;;19.30;62.60;;;;;;4998032;28;20206;-48
2023/09/28 05:15:03;;;;;;;6.67;6.07;;;19.10;64.20;;;;;;4996706;28;20430;-48
2023/09/28 05:17:29;;;;;;;7.70;5.90;;;19.30;64.50;;;;;;4992100;28;20198;-49
2023/09/28 05:19:55;;;;;;;8.17;6.33;;;19.50;63.70;;;;;;4991462;28;20430;-46
2023/09/28 05:22:20;;;;;;;8.10;7.00;;;19.60;62.90;;;;;;4988723;28;21990;-46
2023/09/28 05:24:46;;;;;;;7.47;6.77;;;19.60;61.90;;;;;;4990147;28;20190;-46
2023/09/28 05:27:12;;;;;;;7.27;6.67;;;19.70;61.70;;;;;;4986804;28;20453;-52
2023/09/28 05:29:37;;;;;;;6.87;6.23;;;19.80;62.20;;;;;;4983056;28;20638;-49
2023/09/28 05:32:05;;;;;;;10.03;5.50;;;20.00;61.10;;;;;;4987677;28;20190;-46
2023/09/28 05:34:31;;;;;;;8.60;6.20;;;20.30;60.10;;;;;;4985885;28;22552;-50
2023/09/28 05:36:56;;;;;;;7.23;6.57;;;20.40;59.30;;;;;;4990716;28;20450;-46
2023/09/28 05:39:22;;;;;;;6.63;5.77;;;20.60;58.90;;;;;;4990608;28;20313;-52
2023/09/28 05:41:47;;;;;;;6.10;5.60;;;20.70;58.40;;;;;;5007183;28;20190;-46
2023/09/28 05:44:14;;;;;;;6.10;5.50;;;20.80;58.00;;;;;;4997099;28;20198;-50
2023/09/28 05:46:40;;;;;;;6.00;5.50;;;20.90;57.70;;;;;;4991650;28;20324;-46
2023/09/28 05:49:05;;;;;;;6.43;5.83;;;21.00;57.50;;;;;;4987210;28;20525;-46
2023/09/28 05:51:31;;;;;;;7.10;6.23;;;21.10;57.40;;;;;;4991159;28;20257;-46
2023/09/28 05:53:56;;;;;;;7.03;6.33;;;21.00;57.10;;;;;;4992433;28;20252;-50
2023/09/28 05:56:22;;;;;;;6.77;5.90;;;21.00;57.10;;;;;;4995527;28;20292;-47
2023/09/28 05:58:48;;;;;;;6.43;5.93;;;21.10;57.00;;;;;;4986535;28;20234;-46
2023/09/28 06:01:17;;;;;;;7.10;6.50;;;21.00;57.10;;;;;;5000292;28;20260;-46
2023/09/28 06:03:42;;;;;;;6.47;5.87;;;20.90;57.30;;;;;;4989432;28;20261;-47
2023/09/28 06:06:15;;;;;;;8.03;6.43;;;21.00;57.30;;;;;;4989797;28;20446;-47
2023/09/28 06:08:42;;;;;;;6.90;6.30;;;21.10;57.40;;;;;;4995342;28;20209;-53
2023/09/28 06:11:11;;;;;;;6.97;6.27;;;21.00;57.20;;;;;;4992812;28;20477;-50
2023/09/28 06:13:39;;;;;;;6.27;5.73;;;21.10;57.20;;;;;;4992030;28;20609;-46
2023/09/28 06:16:04;;;;;;;5.87;5.37;;;21.10;56.80;;;;;;4991590;28;20488;-52
2023/09/28 06:18:30;;;;;;;7.00;6.40;;;21.00;56.50;;;;;;4985839;28;20526;-49
2023/09/28 06:20:56;;;;;;;6.80;5.93;;;21.00;56.80;;;;;;4987952;28;20199;-48
2023/09/28 06:23:21;;;;;;;5.83;5.33;;;20.70;57.40;;;;;;4992360;28;20196;-46
2023/09/28 06:25:47;;;;;;;6.17;5.60;;;20.80;57.60;;;;;;4993519;28;20218;-51
2023/09/28 06:28:13;;;;;;;6.10;5.60;;;20.90;57.50;;;;;;4989806;28;20191;-49
2023/09/28 06:30:38;;;;;;;6.10;5.50;;;20.90;57.30;;;;;;4986784;28;20445;-48
2023/09/28 06:33:04;;;;;;;6.40;5.77;;;20.90;57.20;;;;;;4985746;28;20213;-45
2023/09/28 06:35:30;;;;;;;6.90;6.17;;;20.60;57.60;;;;;;4993075;28;20194;-47
2023/09/28 06:37:56;;;;;;;6.00;5.40;;;20.50;57.50;;;;;;4994339;28;20527;-47
2023/09/28 06:40:22;;;;;;;5.33;4.83;;;20.40;56.90;;;;;;4987185;28;20302;-46
2023/09/28 06:42:47;;;;;;;6.07;5.57;;;20.30;57.30;;;;;;4990389;28;20445;-52
2023/09/28 06:45:14;;;;;;;5.77;5.13;;;20.40;57.10;;;;;;4991929;28;20639;-45
2023/09/28 06:47:39;;;;;;;5.00;4.50;;;20.40;56.40;;;;;;4994632;28;20245;-46
2023/09/28 06:50:05;;;;;;;6.67;5.20;;;20.60;56.40;;;;;;4995317;28;20436;-46
2023/09/28 06:52:32;;;;;;;5.90;5.33;;;20.60;56.50;;;;;;4983395;28;20202;-47
2023/09/28 06:54:58;;;;;;;5.00;4.50;;;20.70;57.00;;;;;;4995413;28;20496;-46
2023/09/28 06:57:24;;;;;;;4.60;4.20;;;21.00;56.40;;;;;;4994307;28;20984;-46
2023/09/28 06:59:50;;;;;;;5.40;4.70;;;21.00;55.80;;;;;;4993628;28;20290;-46
2023/09/28 07:02:15;;;;;;;5.57;5.07;;;21.00;56.10;;;;;;4992056;28;20522;-46
2023/09/28 07:04:42;;;;;;;7.10;4.93;;;20.90;56.20;;;;;;4992714;28;20475;-47
2023/09/28 07:07:10;;;;;;;5.30;4.80;;;20.90;56.60;;;;;;5004608;28;20340;-46
2023/09/28 07:09:36;;;;;;;5.37;4.87;;;21.00;56.30;;;;;;5001090;28;20812;-48
2023/09/28 07:12:02;;;;;;;7.70;5.37;;;21.10;56.10;;;;;;4996044;28;20434;-46
2023/09/28 07:14:27;;;;;;;5.80;5.03;;;21.10;56.10;;;;;;5012614;28;20213;-46
2023/09/28 07:16:53;;;;;;;4.93;4.50;;;21.40;55.80;;;;;;5009426;28;20661;-46
2023/09/28 07:19:19;;;;;;;6.27;5.67;;;21.60;55.30;;;;;;4993563;28;20634;-46
2023/09/28 07:21:45;;;;;;;6.30;5.20;;;21.80;54.20;;;;;;4997227;28;20674;-47
2023/09/28 07:24:12;;;;;;;6.00;4.97;;;21.80;54.10;;;;;;5008376;28;20440;-46
2023/09/28 07:26:37;;;;;;;6.87;4.63;;;22.10;53.70;;;;;;5008216;28;20424;-48
2023/09/28 07:29:04;;;;;;;4.93;4.33;;;22.40;53.20;;;;;;5004582;28;20650;-48
2023/09/28 07:31:29;;;;;;;5.40;4.90;;;22.40;53.20;;;;;;5001160;28;20602;-46
2023/09/28 07:33:56;;;;;;;5.23;4.80;;;22.60;52.90;;;;;;5002024;28;20545;-48
2023/09/28 07:36:21;;;;;;;6.13;5.33;;;23.00;52.00;;;;;;4998041;28;20198;-46
2023/09/28 07:38:47;;;;;;;5.80;5.20;;;23.20;51.50;;;;;;5009167;28;20834;-47
2023/09/28 07:41:13;;;;;;;4.87;4.37;;;23.40;50.90;;;;;;4995007;28;20378;-46
2023/09/28 07:43:38;;;;;;;4.90;4.50;;;23.50;50.00;;;;;;4999157;28;20206;-46
2023/09/28 07:46:04;;;;;;;4.47;3.83;;;23.60;50.10;;;;;;5001074;28;20845;-46
2023/09/28 07:48:30;;;;;;;8.30;4.17;;;23.60;48.90;;;;;;5002336;28;20268;-46
2023/09/28 07:50:55;;;;;;;9.83;4.60;;;23.30;49.40;;;;;;5004606;28;20191;-47
2023/09/28 07:53:21;;;;;;;4.87;4.47;;;23.30;49.60;;;;;;5000100;28;20209;-47
2023/09/28 07:55:47;;;;;;;7.10;3.70;;;23.40;49.40;;;;;;5003061;28;20237;-48
2023/09/28 07:58:12;;;;;;;7.87;4.00;;;23.50;49.60;;;;;;5000811;28;20313;-46
2023/09/28 08:00:38;;;;;;;4.63;4.23;;;23.90;49.40;;;;;;5002211;28;20521;-47
2023/09/28 08:03:04;;;;;;;5.03;4.63;;;23.90;48.90;;;;;;5004064;28;20209;-47
2023/09/28 08:05:31;;;;;;;5.23;4.73;;;24.10;49.00;;;;;;5002049;28;20228;-47
2023/09/28 08:07:57;;;;;;;5.60;3.80;;;24.10;48.60;;;;;;4994159;28;20457;-46
2023/09/28 08:10:23;;;;;;;5.60;4.90;;;24.30;48.80;;;;;;5007434;28;20426;-48
2023/09/28 08:12:48;;;;;;;4.47;4.07;;;24.50;48.00;;;;;;5006590;28;20672;-48
2023/09/28 08:15:15;;;;;;;3.90;3.60;;;24.70;47.70;;;;;;4992138;28;20202;-50
2023/09/28 08:17:44;;;;;;;4.20;3.90;;;24.60;46.80;;;;;;4988458;28;20211;-47
2023/09/28 08:20:10;;;;;;;5.17;4.30;;;24.50;46.80;;;;;;4988022;28;21021;-51
2023/09/28 08:22:36;;;;;;;4.47;3.70;;;24.60;47.30;;;;;;4991456;28;20540;-49
2023/09/28 08:25:05;;;;;;;5.43;4.23;;;24.70;46.50;;;;;;4986676;28;20562;-51
2023/09/28 08:27:31;;;;;;;4.30;3.90;;;25.00;46.00;;;;;;4996685;28;20241;-47
2023/09/28 08:29:57;;;;;;;5.30;4.80;;;25.10;45.80;;;;;;4991039;28;20524;-51
2023/09/28 08:32:23;;;;;;;4.07;3.67;;;25.20;46.00;;;;;;4993354;28;20452;-47
2023/09/28 08:34:49;;;;;;;5.77;4.20;;;25.30;45.40;;;;;;4995807;28;20193;-47
2023/09/28 08:37:14;;;;;;;5.50;3.83;;;25.40;44.70;;;;;;4996912;28;20195;-50
2023/09/28 08:39:40;;;;;;;4.80;4.40;;;25.60;44.50;;;;;;4991872;28;20480;-47
2023/09/28 08:42:13;;;;;;;5.23;4.73;;;25.60;43.80;;;;;;4990921;28;20545;-47
2023/09/28 08:44:40;;;;;;;4.60;3.97;;;25.60;43.70;;;;;;4999871;28;20190;-48
2023/09/28 08:47:16;;;;;;;4.10;3.80;;;26.00;44.60;;;;;;4989095;28;20917;-50
2023/09/28 08:49:48;;;;;;;4.77;4.10;;;26.30;43.40;;;;;;4987398;28;20441;-48
2023/09/28 08:52:16;;;;;;;4.73;4.00;;;26.50;42.40;;;;;;4991314;28;20457;-47
2023/09/28 08:54:42;;;;;;;5.27;4.23;;;26.60;42.50;;;;;;4991930;28;20446;-47
2023/09/28 08:57:09;;;;;;;4.67;4.20;;;26.70;42.40;;;;;;5002516;28;20496;-48
2023/09/28 08:59:40;;;;;;;4.20;3.80;;;26.70;42.10;;;;;;4990948;28;20269;-47
2023/09/28 09:02:06;;;;;;;4.90;3.90;;;26.80;42.10;;;;;;4993207;28;20465;-50
2023/09/28 09:04:34;;;;;;;4.67;3.80;;;27.00;42.80;;;;;;4989481;28;20477;-49
2023/09/28 09:07:04;;;;;;;3.60;3.30;;;27.20;40.70;;;;;;4986932;28;20202;-47
2023/09/28 09:09:34;;;;;;;4.40;3.90;;;27.40;40.20;;;;;;4993248;28;20453;-48
2023/09/28 09:12:03;;;;;;;4.63;4.23;;;27.30;38.90;;;;;;4988656;28;20445;-48
2023/09/28 09:14:29;;;;;;;4.40;4.00;;;27.30;38.60;;;;;;4991131;28;21002;-48
2023/09/28 09:16:54;;;;;;;5.00;4.50;;;27.70;38.60;;;;;;4987901;28;20442;-48
2023/09/28 09:19:20;;;;;;;7.17;4.17;;;27.80;38.40;;;;;;4981626;28;20745;-50
2023/09/28 09:21:45;;;;;;;5.30;4.07;;;28.00;37.80;;;;;;4988847;28;20242;-51
2023/09/28 09:24:15;;;;;;;4.40;3.90;;;28.00;37.90;;;;;;4990065;28;20202;-48
2023/09/28 09:26:42;;;;;;;5.13;4.60;;;28.00;37.60;;;;;;4987555;28;20564;-48
2023/09/28 09:29:09;;;;;;;3.63;3.33;;;28.00;38.10;;;;;;4990324;28;20484;-52
2023/09/28 09:31:42;;;;;;;6.80;3.87;;;28.00;38.20;;;;;;4991687;28;20539;-47
2023/09/28 09:34:11;;;;;;;6.83;4.30;;;28.00;37.50;;;;;;4989662;28;20446;-48
2023/09/28 09:36:38;;;;;;;4.27;3.87;;;28.00;38.00;;;;;;4993141;28;20536;-47
2023/09/28 09:39:03;;;;;;;4.70;3.93;;;28.30;37.50;;;;;;4999472;28;20886;-49
2023/09/28 09:41:29;;;;;;;4.70;4.30;;;28.60;37.30;;;;;;4997964;28;20449;-47
2023/09/28 09:43:57;;;;;;;4.23;3.93;;;28.90;37.20;;;;;;4991347;28;20236;-48
2023/09/28 09:46:25;;;;;;;4.53;3.77;;;29.10;36.90;;;;;;5001279;28;20528;-47
2023/09/28 09:48:51;;;;;;;3.93;3.57;;;29.20;36.50;;;;;;4992677;28;20523;-47
2023/09/28 09:51:17;;;;;;;4.53;3.90;;;29.30;36.50;;;;;;4993124;28;20507;-47
2023/09/28 09:53:45;;;;;;;6.03;3.70;;;29.50;36.70;;;;;;4993311;28;20444;-47
2023/09/28 09:56:12;;;;;;;3.87;3.47;;;29.60;36.10;;;;;;4995446;28;22193;-49
2023/09/28 09:58:43;;;;;;;4.20;3.83;;;29.70;36.20;;;;;;4995265;28;20484;-47
2023/09/28 10:01:13;;;;;;;9.53;3.87;;;29.90;36.40;;;;;;4993332;28;20457;-48
2023/09/28 10:03:44;;;;;;;4.03;3.43;;;30.10;35.50;;;;;;4997153;28;20442;-48
2023/09/28 10:06:11;;;;;;;5.93;3.60;;;30.20;35.30;;;;;;5004228;28;20445;-48
2023/09/28 10:08:38;;;;;;;5.60;4.17;;;30.30;35.10;;;;;;4993103;28;20516;-48
2023/09/28 10:11:04;;;;;;;4.37;3.83;;;30.50;34.90;;;;;;4989826;28;20454;-48
2023/09/28 10:13:31;;;;;;;10.67;4.43;;;30.60;34.50;;;;;;4999003;28;20458;-49
2023/09/28 10:16:01;;;;;;;4.67;4.27;;;30.80;34.30;;;;;;4980559;28;21151;-48
2023/09/28 10:18:29;;;;;;;4.77;3.83;;;30.90;34.30;;;;;;4987102;28;20497;-46
2023/09/28 10:20:55;;;;;;;5.10;4.60;;;31.10;35.00;;;;;;4981013;28;20450;-46
2023/09/28 10:23:24;;;;;;;5.43;3.97;;;31.10;34.20;;;;;;4996174;28;20448;-47
2023/09/28 10:26:18;;;;;;;3.90;3.53;;;31.30;34.90;;;;;;5005110;28;20417;-46
2023/09/28 10:29:06;;;;;;;3.93;3.40;;;31.50;35.40;;;;;;4988830;28;20941;-48
2023/09/28 10:31:36;;;;;;;3.97;3.57;;;31.70;33.60;;;;;;4998151;28;20457;-46
2023/09/28 10:34:06;;;;;;;3.80;3.50;;;31.90;34.10;;;;;;4988729;28;20450;-46
2023/09/28 10:36:33;;;;;;;3.93;3.63;;;32.10;33.50;;;;;;4996414;28;20453;-50
2023/09/28 10:39:15;;;;;;;4.90;3.70;;;32.10;33.20;;;;;;4989939;28;20597;-47
2023/09/28 10:41:51;;;;;;;4.63;3.97;;;32.30;33.90;;;;;;4997855;28;20453;-48
2023/09/28 10:44:18;;;;;;;4.70;4.30;;;32.50;34.70;;;;;;4983995;28;20489;-47
2023/09/28 10:46:49;;;;;;;7.23;4.10;;;32.50;33.60;;;;;;4986538;28;20516;-49
2023/09/28 10:49:24;;;;;;;3.70;3.40;;;32.70;32.60;;;;;;4985729;28;20445;-47
2023/09/28 10:51:51;;;;;;;4.27;3.53;;;32.70;31.40;;;;;;4997545;28;20499;-48
2023/09/28 10:54:17;;;;;;;6.03;3.40;;;32.80;31.90;;;;;;5006194;28;20449;-47
2023/09/28 10:56:43;;;;;;;3.87;3.57;;;32.90;31.20;;;;;;4990204;28;20474;-49
2023/09/28 10:59:11;;;;;;;3.50;3.20;;;32.70;30.70;;;;;;4989586;28;20520;-51
2023/09/28 11:01:41;;;;;;;4.13;3.57;;;32.80;30.70;;;;;;4999881;28;20199;-47
2023/09/28 11:04:07;;;;;;;4.17;3.77;;;33.00;30.00;;;;;;4997558;28;20523;-47
2023/09/28 11:06:33;;;;;;;4.17;3.70;;;33.00;29.70;;;;;;4996863;28;20799;-53
2023/09/28 11:09:04;;;;;;;3.30;3.00;;;33.30;29.40;;;;;;4992809;28;20445;-49
2023/09/28 11:11:30;;;;;;;3.33;2.77;;;33.30;28.70;;;;;;4993517;28;20442;-47
2023/09/28 11:13:58;;;;;;;2.87;2.57;;;33.40;27.80;;;;;;4993962;28;20487;-50
2023/09/28 11:16:24;;;;;;;3.27;2.97;;;33.40;27.20;;;;;;5003052;28;20882;-47
2023/09/28 11:18:49;;;;;;;3.00;2.80;;;33.30;27.70;;;;;;5002766;28;20480;-47
2023/09/28 11:21:15;;;;;;;4.00;3.60;;;33.40;27.20;;;;;;5004225;28;20920;-48
2023/09/28 11:23:41;;;;;;;3.33;3.00;;;33.30;27.20;;;;;;4998772;28;20201;-47
2023/09/28 11:26:11;;;;;;;4.43;3.00;;;33.40;27.60;;;;;;5002487;28;20198;-47
2023/09/28 11:28:38;;;;;;;3.80;2.97;;;33.50;28.10;;;;;;5007165;28;20191;-47
2023/09/28 11:31:11;;;;;;;3.40;2.67;;;33.50;27.80;;;;;;5008135;28;20465;-48
2023/09/28 11:33:38;;;;;;;3.90;3.53;;;33.60;27.70;;;;;;5021994;28;20443;-47
2023/09/28 11:36:05;;;;;;;3.60;3.10;;;33.70;27.50;;;;;;4995257;28;20445;-47
2023/09/28 11:38:32;;;;;;;7.40;3.50;;;33.70;27.40;;;;;;5007935;28;20492;-48
2023/09/28 11:40:58;;;;;;;8.90;3.20;;;33.80;27.60;;;;;;5003382;28;20444;-47
2023/09/28 11:43:23;;;;;;;3.67;3.37;;;33.80;27.70;;;;;;4997753;28;20438;-47
2023/09/28 11:45:49;;;;;;;11.30;5.00;;;33.90;27.00;;;;;;4994471;28;20191;-48
2023/09/28 11:48:20;;;;;;;4.37;3.00;;;34.00;28.00;;;;;;4994636;28;20205;-47
2023/09/28 11:50:46;;;;;;;2.83;2.63;;;34.00;27.50;;;;;;4997300;28;20191;-47
2023/09/28 11:53:11;;;;;;;3.43;3.13;;;34.00;27.70;;;;;;4999620;28;20440;-48
2023/09/28 11:55:41;;;;;;;3.73;3.23;;;34.00;27.80;;;;;;5003416;28;20464;-47
2023/09/28 11:58:09;;;;;;;3.67;3.37;;;33.90;27.70;;;;;;4996078;28;20210;-47
2023/09/28 12:00:36;;;;;;;3.70;3.30;;;33.90;27.50;;;;;;5001141;28;20876;-47
2023/09/28 12:03:03;;;;;;;3.40;3.10;;;33.80;28.20;;;;;;5003455;28;20436;-49
2023/09/28 12:05:29;;;;;;;9.57;3.37;;;33.80;27.90;;;;;;5014535;28;20421;-50
2023/09/28 12:07:55;;;;;;;3.53;3.23;;;33.90;27.90;;;;;;5000911;28;20441;-47
2023/09/28 12:10:21;;;;;;;4.70;3.73;;;34.00;28.50;;;;;;5000243;28;20425;-48
2023/09/28 12:12:47;;;;;;;11.47;3.73;;;34.10;27.70;;;;;;5008772;28;20948;-47
2023/09/28 12:15:14;;;;;;;4.27;3.23;;;34.20;27.20;;;;;;5004218;28;20205;-47
2023/09/28 12:17:41;;;;;;;3.87;2.70;;;34.40;27.30;;;;;;4999382;28;20237;-47
2023/09/28 12:20:09;;;;;;;3.30;3.00;;;34.50;27.00;;;;;;5007323;28;20981;-47
2023/09/28 12:22:37;;;;;;;3.33;2.63;;;34.50;26.80;;;;;;4999849;28;20429;-47
2023/09/28 12:25:04;;;;;;;3.87;3.50;;;34.40;26.80;;;;;;5010542;28;20463;-48
2023/09/28 12:27:34;;;;;;;3.70;3.17;;;34.50;27.00;;;;;;4996409;28;20454;-48
2023/09/28 12:29:59;;;;;;;4.07;2.70;;;34.50;26.70;;;;;;4997034;28;20442;-47
2023/09/28 12:32:28;;;;;;;3.20;2.90;;;34.50;26.70;;;;;;5013262;28;20972;-49
2023/09/28 12:34:54;;;;;;;6.23;3.40;;;34.30;26.70;;;;;;5012114;28;20251;-48
2023/09/28 12:37:19;;;;;;;3.50;3.20;;;34.40;26.90;;;;;;5007853;28;20524;-47
2023/09/28 12:39:45;;;;;;;3.63;3.33;;;34.70;27.20;;;;;;5011519;28;20226;-47
2023/09/28 12:42:15;;;;;;;3.20;2.70;;;34.90;26.50;;;;;;5000245;28;20195;-47
2023/09/28 12:44:42;;;;;;;3.30;3.10;;;35.00;26.20;;;;;;4995349;28;20508;-47